Time;durP1;ratioP1;P1;durP2;ratioP2;P2;SDS_P1;SDS_P2;PMS_P1;PMS_P2;Temp;Humidity;BMP_temperature;BMP_pressure;BME280_temperature;BME280_humidity;BME280_pressure;Samples;Min_cycle;Max_cycle;Signal;HPM_P1;HPM_P2
2022/11/20 00:01:13;;;;;;;8.48;3.30;;;-3.80;99.90;;;;;;4866169;29;20101;-82
2022/11/20 00:03:39;;;;;;;5.22;2.55;;;-3.90;99.90;;;;;;4864724;29;20030;-85
2022/11/20 00:06:07;;;;;;;6.75;2.75;;;-3.70;99.90;;;;;;4868083;29;20174;-86
2022/11/20 00:08:33;;;;;;;6.90;2.60;;;-3.60;99.90;;;;;;4867936;29;20041;-83
2022/11/20 00:11:11;;;;;;;5.78;2.47;;;-3.60;99.90;;;;;;4867583;29;20393;-86
2022/11/20 00:13:37;;;;;;;7.18;2.90;;;-3.70;99.90;;;;;;4867678;29;20505;-82
2022/11/20 00:16:05;;;;;;;5.07;2.40;;;-3.70;99.90;;;;;;4885143;29;20045;-81
2022/11/20 00:18:32;;;;;;;6.13;2.35;;;-3.80;99.90;;;;;;4870955;29;20033;-84
2022/11/20 00:21:06;;;;;;;5.38;2.00;;;-4.00;99.90;;;;;;4871405;29;20486;-79
2022/11/20 00:23:32;;;;;;;6.45;2.90;;;-3.90;99.90;;;;;;4870072;29;20071;-81
2022/11/20 00:26:07;;;;;;;5.80;2.45;;;-3.80;99.90;;;;;;4868706;29;20033;-82
2022/11/20 00:28:33;;;;;;;7.50;2.70;;;-3.80;99.90;;;;;;4869512;29;20040;-86
2022/11/20 00:31:07;;;;;;;5.60;2.15;;;-4.00;99.90;;;;;;4870582;29;20048;-85
2022/11/20 00:33:33;;;;;;;7.47;3.15;;;-4.10;99.90;;;;;;4884009;29;20053;-85
2022/11/20 00:36:01;;;;;;;6.00;2.10;;;-3.80;99.90;;;;;;4870488;29;20049;-83
2022/11/20 00:38:26;;;;;;;6.80;2.45;;;-3.90;99.90;;;;;;4873089;29;20037;-82
2022/11/20 00:41:00;;;;;;;5.95;2.33;;;-4.00;99.90;;;;;;4852895;29;20116;-86
2022/11/20 00:43:26;;;;;;;6.25;2.83;;;-4.20;99.90;;;;;;4870214;29;20029;-85
2022/11/20 00:46:08;;;;;;;6.32;2.63;;;-4.20;99.90;;;;;;4870236;29;20097;-86
2022/11/20 00:48:34;;;;;;;6.80;2.80;;;-3.90;99.90;;;;;;4869669;29;20048;-86
2022/11/20 00:51:00;;;;;;;6.38;3.00;;;-3.80;99.90;;;;;;4877917;29;20032;-83
2022/11/20 00:53:26;;;;;;;7.95;3.42;;;-3.90;99.90;;;;;;4871317;29;20060;-84
2022/11/20 00:55:58;;;;;;;6.60;2.50;;;-4.10;99.90;;;;;;4886272;29;20490;-83
2022/11/20 00:58:30;;;;;;;6.88;2.90;;;-4.20;99.90;;;;;;4867996;29;20053;-82
2022/11/20 01:01:14;;;;;;;7.60;3.10;;;-4.00;99.90;;;;;;4870975;29;20025;-85
2022/11/20 01:03:43;;;;;;;9.13;3.75;;;-4.00;99.90;;;;;;4862775;29;20037;-87
2022/11/20 01:06:13;;;;;;;8.55;3.10;;;-3.90;99.90;;;;;;4869296;29;20043;-81
2022/11/20 01:08:39;;;;;;;8.32;3.45;;;-3.90;99.90;;;;;;4889356;29;20041;-84
2022/11/20 01:11:09;;;;;;;6.70;2.92;;;-3.90;99.90;;;;;;4884996;29;20471;-84
2022/11/20 01:13:39;;;;;;;9.10;4.43;;;-4.00;99.90;;;;;;4866647;29;20099;-82
2022/11/20 01:16:07;;;;;;;6.88;3.30;;;-3.90;99.90;;;;;;4876284;29;20029;-85
2022/11/20 01:18:34;;;;;;;5.65;2.67;;;-3.90;99.90;;;;;;4882951;29;20029;-86
2022/11/20 01:21:05;;;;;;;7.22;3.35;;;-4.00;99.90;;;;;;4874193;29;20483;-83
2022/11/20 01:23:35;;;;;;;8.85;3.30;;;-4.10;99.90;;;;;;4865223;29;20048;-84
2022/11/20 01:26:03;;;;;;;7.93;2.80;;;-4.20;99.90;;;;;;4873062;29;20128;-86
2022/11/20 01:28:29;;;;;;;7.05;3.28;;;-4.30;99.90;;;;;;4871642;29;20041;-85
2022/11/20 01:30:55;;;;;;;6.32;2.67;;;-4.30;99.90;;;;;;4874195;29;20530;-82
2022/11/20 01:33:21;;;;;;;7.70;2.70;;;-4.30;99.90;;;;;;4869916;29;20048;-84
2022/11/20 01:35:46;;;;;;;6.75;2.67;;;-4.40;99.90;;;;;;4886934;29;20052;-79
2022/11/20 01:38:12;;;;;;;7.18;3.10;;;-4.50;99.90;;;;;;4886597;29;20123;-85
2022/11/20 01:40:38;;;;;;;5.70;2.17;;;-4.10;99.90;;;;;;4887672;29;20063;-85
2022/11/20 01:43:22;;;;;;;6.35;2.85;;;-4.20;99.90;;;;;;4872670;29;20088;-84
2022/11/20 01:46:18;;;;;;;6.72;3.00;;;-4.20;99.90;;;;;;4871164;29;20037;-84
2022/11/20 01:48:43;;;;;;;7.15;2.38;;;-4.20;99.90;;;;;;4855870;29;20200;-86
2022/11/20 01:51:20;;;;;;;6.80;2.60;;;-4.20;99.90;;;;;;4873779;29;20533;-87
2022/11/20 01:53:46;;;;;;;6.82;2.40;;;-4.20;99.90;;;;;;4882272;29;20506;-83
2022/11/20 01:56:13;;;;;;;5.10;1.92;;;-4.20;99.90;;;;;;4863333;29;20108;-86
2022/11/20 01:58:45;;;;;;;4.57;1.85;;;-4.30;99.90;;;;;;4883763;29;20035;-85
2022/11/20 02:01:11;;;;;;;4.35;1.90;;;-4.10;99.90;;;;;;4863732;29;20044;-82
2022/11/20 02:03:37;;;;;;;5.88;2.20;;;-4.30;99.90;;;;;;4881649;29;21926;-84
2022/11/20 02:06:05;;;;;;;5.18;1.50;;;-4.20;99.90;;;;;;4888641;29;20043;-85
2022/11/20 02:08:32;;;;;;;4.05;1.70;;;-4.20;99.90;;;;;;4857272;29;20037;-83
2022/11/20 02:10:57;;;;;;;6.68;2.28;;;-4.10;99.90;;;;;;4867010;29;20036;-85
2022/11/20 02:16:25;;;;;;;4.50;1.77;;;-4.50;99.90;;;;;;4885855;29;20029;-83
2022/11/20 02:18:51;;;;;;;4.65;1.88;;;-4.50;99.90;;;;;;4871104;29;20040;-86
2022/11/20 02:21:17;;;;;;;7.68;2.33;;;-4.30;99.90;;;;;;4880888;29;20053;-84
2022/11/20 02:24:04;;;;;;;5.95;2.00;;;-4.40;99.90;;;;;;4870734;29;20546;-82
2022/11/20 02:26:34;;;;;;;5.53;2.05;;;-4.40;99.90;;;;;;4881782;29;20833;-86
2022/11/20 02:29:01;;;;;;;3.42;1.27;;;-4.40;99.90;;;;;;4870844;29;20037;-87
2022/11/20 02:31:27;;;;;;;4.75;1.65;;;-4.40;99.90;;;;;;4871481;29;20036;-86
2022/11/20 02:33:59;;;;;;;6.80;2.15;;;-4.40;99.90;;;;;;4879573;29;20038;-82
2022/11/20 02:36:28;;;;;;;5.47;2.13;;;-4.50;99.90;;;;;;4855942;29;20037;-87
2022/11/20 02:38:53;;;;;;;3.65;1.50;;;-4.50;99.90;;;;;;4870286;29;20037;-86
2022/11/20 02:41:19;;;;;;;5.10;1.55;;;-4.40;99.90;;;;;;4887133;29;20531;-87
2022/11/20 02:43:45;;;;;;;5.85;1.85;;;-4.40;99.90;;;;;;4873105;29;20097;-86
2022/11/20 02:46:10;;;;;;;5.53;1.63;;;-4.50;99.90;;;;;;4880159;29;20037;-82
2022/11/20 02:48:36;;;;;;;7.43;2.05;;;-4.60;99.90;;;;;;4868957;29;20080;-87
2022/11/20 02:51:02;;;;;;;6.22;2.25;;;-4.50;99.90;;;;;;4871128;29;20033;-82
2022/11/20 02:53:28;;;;;;;6.80;2.47;;;-4.60;99.90;;;;;;4868633;29;20096;-86
2022/11/20 02:55:54;;;;;;;6.00;2.83;;;-4.70;99.90;;;;;;4872720;29;20033;-81
2022/11/20 02:58:19;;;;;;;6.60;2.22;;;-4.70;99.90;;;;;;4853960;29;20036;-82
2022/11/20 03:00:45;;;;;;;6.63;2.50;;;-4.60;99.90;;;;;;4874575;29;20037;-83
2022/11/20 03:03:10;;;;;;;6.65;2.95;;;-4.80;99.90;;;;;;4873221;29;20505;-82
2022/11/20 03:05:36;;;;;;;6.75;2.80;;;-4.90;99.90;;;;;;4864934;29;20076;-87
2022/11/20 03:08:02;;;;;;;6.15;2.65;;;-5.00;99.90;;;;;;4868146;29;20439;-82
2022/11/20 03:10:27;;;;;;;4.85;2.10;;;-5.00;99.90;;;;;;4870983;29;20529;-83
2022/11/20 03:12:55;;;;;;;5.85;2.53;;;-4.60;99.90;;;;;;4867494;29;20033;-87
2022/11/20 03:15:22;;;;;;;5.10;2.10;;;-4.60;99.90;;;;;;4871526;29;20037;-81
2022/11/20 03:17:48;;;;;;;4.22;1.55;;;-4.70;99.90;;;;;;4873113;29;20123;-85
2022/11/20 03:20:13;;;;;;;5.97;1.80;;;-4.60;99.90;;;;;;4870048;29;20128;-87
2022/11/20 03:22:39;;;;;;;7.28;1.92;;;-4.50;99.90;;;;;;4881606;29;20021;-83
2022/11/20 03:25:05;;;;;;;7.57;2.83;;;-4.60;99.90;;;;;;4871674;29;20025;-81
2022/11/20 03:27:34;;;;;;;8.20;2.67;;;-4.70;99.90;;;;;;4881185;29;20035;-83
2022/11/20 03:30:00;;;;;;;5.37;1.73;;;-4.70;99.90;;;;;;4868805;29;20046;-82
2022/11/20 03:32:26;;;;;;;5.32;2.15;;;-4.80;99.90;;;;;;4869839;29;20384;-85
2022/11/20 03:34:52;;;;;;;5.15;1.88;;;-4.90;99.90;;;;;;4866841;29;20238;-86
2022/11/20 03:37:18;;;;;;;5.65;1.90;;;-4.90;99.90;;;;;;4868856;29;20065;-85
2022/11/20 03:39:43;;;;;;;5.55;1.50;;;-5.00;99.90;;;;;;4869296;29;20033;-84
2022/11/20 03:45:01;;;;;;;6.18;2.22;;;-4.80;99.90;;;;;;4856480;29;20048;-81
2022/11/20 03:47:27;;;;;;;5.25;1.67;;;-4.90;99.90;;;;;;4867796;29;20037;-82
2022/11/20 03:49:52;;;;;;;5.38;2.25;;;-5.00;99.90;;;;;;4873752;29;20119;-84
2022/11/20 03:52:18;;;;;;;6.30;2.70;;;-5.10;99.90;;;;;;4868293;29;20041;-85
2022/11/20 03:54:43;;;;;;;6.20;2.00;;;-4.90;99.90;;;;;;4873203;29;20040;-85
2022/11/20 03:57:09;;;;;;;5.97;1.95;;;-5.00;99.90;;;;;;4867090;29;20049;-82
2022/11/20 03:59:35;;;;;;;7.05;2.22;;;-5.00;99.90;;;;;;4885023;29;20040;-81
2022/11/20 04:02:00;;;;;;;5.57;2.03;;;-5.10;99.90;;;;;;4871499;29;20090;-79
2022/11/20 04:04:26;;;;;;;4.88;1.42;;;-5.00;99.90;;;;;;4882646;29;20045;-82
2022/11/20 04:06:51;;;;;;;7.13;2.17;;;-5.10;99.90;;;;;;4871308;29;20093;-84
2022/11/20 04:09:17;;;;;;;8.00;2.72;;;-5.30;99.90;;;;;;4869707;29;20101;-79
2022/11/20 04:11:43;;;;;;;6.53;2.58;;;-5.10;99.90;;;;;;4869170;29;20452;-83
2022/11/20 04:14:15;;;;;;;6.22;2.20;;;-5.30;99.90;;;;;;4870770;29;20437;-83
2022/11/20 04:16:42;;;;;;;4.90;1.80;;;-5.30;99.90;;;;;;4871377;29;20392;-85
2022/11/20 04:19:15;;;;;;;7.80;2.10;;;-5.20;99.90;;;;;;4871679;29;20051;-84
2022/11/20 04:21:41;;;;;;;3.95;1.25;;;-5.10;99.90;;;;;;4883329;29;20128;-81
2022/11/20 04:24:07;;;;;;;5.70;1.67;;;-5.00;99.90;;;;;;4866107;29;20033;-87
2022/11/20 04:26:34;;;;;;;6.53;1.90;;;-5.10;99.90;;;;;;4873271;29;20156;-83
2022/11/20 04:29:03;;;;;;;5.95;2.00;;;-5.10;99.90;;;;;;4869412;29;20439;-81
2022/11/20 04:31:31;;;;;;;7.35;2.45;;;-5.10;99.90;;;;;;4870760;29;20402;-81
2022/11/20 04:34:02;;;;;;;5.63;1.75;;;-5.20;99.90;;;;;;4872168;29;20029;-85
2022/11/20 04:36:28;;;;;;;5.32;1.83;;;-5.20;99.90;;;;;;4871964;29;20050;-85
2022/11/20 04:38:59;;;;;;;6.07;1.85;;;-5.00;99.90;;;;;;4873190;29;20133;-87
2022/11/20 04:41:31;;;;;;;7.13;2.30;;;-5.20;99.90;;;;;;4871493;29;20455;-82
2022/11/20 04:44:04;;;;;;;6.65;2.20;;;-5.20;99.90;;;;;;4872586;29;20037;-81
2022/11/20 04:46:50;;;;;;;5.20;1.92;;;-5.20;99.90;;;;;;4871854;29;20442;-82
2022/11/20 04:49:15;;;;;;;5.57;1.92;;;-5.20;99.90;;;;;;4873944;29;20049;-84
2022/11/20 04:51:41;;;;;;;5.13;1.73;;;-5.30;99.90;;;;;;4873483;29;20021;-83
2022/11/20 04:54:08;;;;;;;4.90;1.80;;;-5.30;99.90;;;;;;4868860;29;20440;-83
2022/11/20 04:56:33;;;;;;;4.90;1.60;;;-5.50;99.90;;;;;;4863596;29;20030;-84
2022/11/20 04:59:02;;;;;;;5.28;1.90;;;-5.40;99.90;;;;;;4872447;29;20047;-86
2022/11/20 05:01:28;;;;;;;5.03;2.20;;;-5.40;99.90;;;;;;4873025;29;20121;-86
2022/11/20 05:03:54;;;;;;;6.00;2.40;;;-5.40;99.90;;;;;;4872011;29;20561;-85
2022/11/20 05:06:21;;;;;;;5.45;1.98;;;-5.60;99.90;;;;;;4869553;29;20076;-82
2022/11/20 05:08:47;;;;;;;8.32;2.28;;;-5.40;99.90;;;;;;4881749;29;20045;-84
2022/11/20 05:11:16;;;;;;;5.68;1.98;;;-5.30;99.90;;;;;;4871132;29;20034;-82
2022/11/20 05:13:42;;;;;;;5.32;1.85;;;-5.20;99.90;;;;;;4877250;29;20506;-83
2022/11/20 05:16:12;;;;;;;4.95;1.73;;;-5.40;99.90;;;;;;4872379;29;20084;-82
2022/11/20 05:18:38;;;;;;;6.25;1.65;;;-5.60;99.90;;;;;;4882153;29;20021;-83
2022/11/20 05:21:05;;;;;;;6.55;2.30;;;-5.40;99.90;;;;;;4872312;29;20036;-85
2022/11/20 05:23:32;;;;;;;6.70;2.03;;;-5.60;99.90;;;;;;4871380;29;20526;-82
2022/11/20 05:25:58;;;;;;;6.93;2.83;;;-5.80;99.90;;;;;;4870978;29;20056;-82
2022/11/20 05:28:24;;;;;;;6.60;2.25;;;-5.70;99.90;;;;;;4871614;29;20043;-87
2022/11/20 05:30:50;;;;;;;6.32;2.08;;;-5.70;99.90;;;;;;4870752;29;20247;-81
2022/11/20 05:33:17;;;;;;;5.88;2.28;;;-5.30;99.90;;;;;;4875307;29;20033;-82
2022/11/20 05:35:42;;;;;;;7.88;1.95;;;-5.40;99.90;;;;;;4881061;29;20052;-82
2022/11/20 05:38:08;;;;;;;5.83;2.03;;;-5.60;99.90;;;;;;4882847;29;20563;-84
2022/11/20 05:40:34;;;;;;;5.53;1.65;;;-5.60;99.90;;;;;;4871709;29;20124;-81
2022/11/20 05:43:00;;;;;;;5.30;1.85;;;-5.50;99.90;;;;;;4882886;29;20073;-81
2022/11/20 05:45:26;;;;;;;5.57;2.10;;;-5.30;99.90;;;;;;4883646;29;20029;-81
2022/11/20 05:47:52;;;;;;;4.80;1.27;;;-5.40;99.90;;;;;;4872715;29;20116;-83
2022/11/20 05:50:18;;;;;;;5.07;2.00;;;-5.40;99.90;;;;;;4866481;29;20041;-80
2022/11/20 05:52:43;;;;;;;5.03;1.73;;;-5.40;99.90;;;;;;4875555;29;20029;-82
2022/11/20 05:55:09;;;;;;;4.25;1.33;;;-5.30;99.90;;;;;;4876043;29;20097;-84
2022/11/20 05:57:35;;;;;;;6.47;1.97;;;-5.40;99.90;;;;;;4869229;29;20037;-83
2022/11/20 06:00:01;;;;;;;5.57;1.85;;;-5.70;99.90;;;;;;4865831;29;20111;-81
2022/11/20 06:02:29;;;;;;;4.97;1.48;;;-5.80;99.90;;;;;;4873204;29;20037;-85
2022/11/20 06:04:55;;;;;;;6.40;1.77;;;-5.70;99.90;;;;;;4870093;29;20033;-82
2022/11/20 06:07:21;;;;;;;5.22;1.60;;;-5.40;99.90;;;;;;4867204;29;20025;-86
2022/11/20 06:09:46;;;;;;;6.78;2.25;;;-5.60;99.90;;;;;;4872749;29;20402;-83
2022/11/20 06:12:12;;;;;;;4.80;1.67;;;-5.30;99.90;;;;;;4870909;29;20040;-81
2022/11/20 06:14:38;;;;;;;9.07;2.38;;;-5.50;99.90;;;;;;4873775;29;20025;-85
2022/11/20 06:17:03;;;;;;;8.00;1.75;;;-5.50;99.90;;;;;;4872360;29;20437;-86
2022/11/20 06:19:30;;;;;;;6.73;1.83;;;-5.50;99.90;;;;;;4868722;29;20033;-81
2022/11/20 06:21:56;;;;;;;5.85;2.35;;;-5.50;99.90;;;;;;4870964;29;20032;-82
2022/11/20 06:24:22;;;;;;;5.25;2.33;;;-5.70;99.90;;;;;;4871641;29;20394;-82
2022/11/20 06:26:48;;;;;;;5.37;1.97;;;-5.70;99.90;;;;;;4856147;29;20041;-81
2022/11/20 06:29:13;;;;;;;9.48;2.72;;;-5.50;99.90;;;;;;4871072;29;20037;-82
2022/11/20 06:31:39;;;;;;;6.88;2.10;;;-5.70;99.90;;;;;;4868987;29;20029;-81
2022/11/20 06:34:06;;;;;;;5.83;2.00;;;-5.50;99.90;;;;;;4869305;29;20512;-83
2022/11/20 06:36:32;;;;;;;7.13;2.57;;;-5.50;99.90;;;;;;4873114;29;20037;-81
2022/11/20 06:38:57;;;;;;;6.88;2.35;;;-5.30;99.90;;;;;;4869968;29;20036;-81
2022/11/20 06:41:23;;;;;;;5.95;2.13;;;-5.40;99.90;;;;;;4854475;29;20036;-82
2022/11/20 06:43:49;;;;;;;5.43;1.70;;;-5.40;99.90;;;;;;4855711;29;20034;-86
2022/11/20 06:46:19;;;;;;;7.33;2.37;;;-5.50;99.90;;;;;;4872558;29;20034;-82
2022/11/20 06:48:46;;;;;;;5.47;2.10;;;-5.80;99.90;;;;;;4870462;29;20045;-82
2022/11/20 06:51:13;;;;;;;5.70;1.97;;;-5.60;99.90;;;;;;4886276;29;20037;-81
2022/11/20 06:53:40;;;;;;;7.37;2.63;;;-5.60;99.90;;;;;;4867954;29;20047;-82
2022/11/20 06:56:07;;;;;;;6.28;2.55;;;-5.60;99.90;;;;;;4868091;29;20048;-83
2022/11/20 06:58:34;;;;;;;6.33;2.40;;;-5.70;99.90;;;;;;4850754;29;20101;-85
2022/11/20 07:01:01;;;;;;;6.65;2.55;;;-5.70;99.90;;;;;;4868992;29;20034;-83
2022/11/20 07:03:26;;;;;;;6.20;2.20;;;-5.70;99.90;;;;;;4852111;29;20099;-85
2022/11/20 07:05:56;;;;;;;9.68;3.25;;;-5.70;99.90;;;;;;4871181;29;20060;-82
2022/11/20 07:08:22;;;;;;;;;;;-5.80;99.90;;;;;;4872161;29;20110;-81
2022/11/20 07:10:50;;;;;;;7.20;2.80;;;-6.00;99.90;;;;;;4882052;29;19916;-87
2022/11/20 07:13:16;;;;;;;6.63;2.07;;;-5.90;99.90;;;;;;4869083;29;20045;-86
2022/11/20 07:15:41;;;;;;;7.00;2.17;;;-5.70;99.90;;;;;;4871171;29;20024;-86
2022/11/20 07:18:07;;;;;;;6.78;2.45;;;-5.80;99.90;;;;;;4854174;29;20037;-83
2022/11/20 07:20:34;;;;;;;8.00;2.10;;;-5.70;99.90;;;;;;4863842;29;20497;-82
2022/11/20 07:23:00;;;;;;;6.68;2.38;;;-5.80;99.90;;;;;;4870996;29;20037;-82
2022/11/20 07:25:27;;;;;;;6.72;2.15;;;-5.50;99.90;;;;;;4878697;29;20033;-86
2022/11/20 07:27:56;;;;;;;5.33;1.77;;;-5.70;99.90;;;;;;4885064;29;20550;-81
2022/11/20 07:30:21;;;;;;;5.33;1.80;;;-5.60;99.90;;;;;;4883073;29;20037;-82
2022/11/20 07:32:50;;;;;;;6.83;2.43;;;-5.50;99.90;;;;;;4872995;29;20032;-82
2022/11/20 07:35:16;;;;;;;7.67;2.53;;;-5.50;99.90;;;;;;4880253;29;20457;-83
2022/11/20 07:37:42;;;;;;;5.43;2.33;;;-5.50;99.90;;;;;;4869866;29;20138;-82
2022/11/20 07:40:08;;;;;;;7.72;2.30;;;-5.70;99.90;;;;;;4869972;29;20040;-82
2022/11/20 07:42:33;;;;;;;5.93;2.30;;;-5.60;99.90;;;;;;4876091;29;20060;-82
2022/11/20 07:45:00;;;;;;;6.15;2.13;;;-5.40;99.90;;;;;;4884333;29;20040;-82
2022/11/20 07:47:26;;;;;;;7.63;2.13;;;-5.50;99.90;;;;;;4854285;29;20036;-87
2022/11/20 07:49:51;;;;;;;7.20;2.13;;;-5.40;99.90;;;;;;4871631;29;20036;-87
2022/11/20 07:52:17;;;;;;;7.47;2.58;;;-5.30;99.90;;;;;;4879909;29;20036;-84
2022/11/20 07:54:43;;;;;;;6.45;2.40;;;-5.40;99.90;;;;;;4873549;29;20041;-83
2022/11/20 07:57:08;;;;;;;6.90;2.73;;;-5.40;99.90;;;;;;4883580;29;20021;-83
2022/11/20 07:59:34;;;;;;;8.18;2.53;;;-5.40;99.90;;;;;;4872298;29;20462;-82
2022/11/20 08:01:59;;;;;;;6.37;2.17;;;-5.40;99.90;;;;;;4880567;29;20108;-87
2022/11/20 08:04:25;;;;;;;7.10;2.50;;;-5.20;99.90;;;;;;4863600;29;20032;-81
2022/11/20 08:06:52;;;;;;;5.83;2.23;;;-5.10;99.90;;;;;;4868971;29;20099;-86
2022/11/20 08:09:18;;;;;;;5.60;2.58;;;-4.80;99.90;;;;;;4868526;29;20040;-81
2022/11/20 08:14:27;;;;;;;7.57;2.53;;;-4.80;99.90;;;;;;4885276;29;20025;-85
2022/11/20 08:16:53;;;;;;;6.60;2.85;;;-4.50;99.90;;;;;;4872545;29;20363;-82
2022/11/20 08:19:19;;;;;;;6.90;2.25;;;-4.50;99.90;;;;;;4866342;29;20040;-85
2022/11/20 08:21:45;;;;;;;6.50;2.67;;;-4.20;99.90;;;;;;4871935;29;20486;-82
2022/11/20 08:24:11;;;;;;;7.13;2.77;;;-4.20;99.90;;;;;;4871349;29;20072;-81
2022/11/20 08:26:38;;;;;;;6.65;2.42;;;-4.10;99.90;;;;;;4873284;29;20108;-82
2022/11/20 08:29:04;;;;;;;6.50;2.47;;;-3.90;99.90;;;;;;4870181;29;20068;-86
2022/11/20 08:31:31;;;;;;;8.15;2.65;;;-4.00;99.90;;;;;;4873086;29;20380;-89
2022/11/20 08:33:56;;;;;;;7.05;2.75;;;-4.00;99.90;;;;;;4868030;29;20037;-81
2022/11/20 08:36:23;;;;;;;7.15;2.78;;;-4.00;99.90;;;;;;4846498;29;20056;-81
2022/11/20 08:38:51;;;;;;;8.30;3.38;;;-3.80;99.90;;;;;;4847740;29;20041;-81
2022/11/20 08:41:23;;;;;;;5.20;2.67;;;-3.50;99.90;;;;;;4850588;29;20481;-81
2022/11/20 08:43:52;;;;;;;7.53;2.75;;;-3.40;99.90;;;;;;4883960;29;20184;-83
2022/11/20 08:46:18;;;;;;;6.30;2.80;;;-3.20;99.90;;;;;;4842315;29;20460;-81
2022/11/20 08:48:44;;;;;;;8.57;2.65;;;-3.10;99.90;;;;;;4853430;29;20043;-83
2022/11/20 08:51:11;;;;;;;8.50;3.20;;;-3.00;99.90;;;;;;4868013;29;20514;-84
2022/11/20 08:53:38;;;;;;;5.75;3.00;;;-3.00;99.90;;;;;;4869951;29;20037;-81
2022/11/20 08:56:04;;;;;;;7.00;3.20;;;-2.90;99.90;;;;;;4866288;29;20037;-84
2022/11/20 08:58:29;;;;;;;6.57;3.20;;;-2.90;99.90;;;;;;4866067;29;20056;-81
2022/11/20 09:00:55;;;;;;;6.50;2.70;;;-2.80;99.90;;;;;;4882001;29;20041;-86
2022/11/20 09:03:21;;;;;;;6.50;2.97;;;-2.80;99.90;;;;;;4867356;29;20041;-82
2022/11/20 09:05:46;;;;;;;6.38;2.65;;;-2.80;99.90;;;;;;4870068;29;20033;-81
2022/11/20 09:08:12;;;;;;;6.32;2.95;;;-2.80;99.90;;;;;;4881851;29;20482;-83
2022/11/20 09:10:41;;;;;;;8.90;3.30;;;-2.70;99.90;;;;;;4871725;29;20069;-85
2022/11/20 09:13:07;;;;;;;5.97;2.63;;;-2.70;99.90;;;;;;4865020;29;20037;-85
2022/11/20 09:15:33;;;;;;;5.90;2.95;;;-2.50;99.90;;;;;;4868478;29;20061;-84
2022/11/20 09:18:01;;;;;;;7.45;3.22;;;-2.20;99.90;;;;;;4868759;29;20037;-85
2022/11/20 09:20:28;;;;;;;10.02;4.93;;;-2.00;99.90;;;;;;4824273;29;20033;-83
2022/11/20 09:22:54;;;;;;;7.57;4.20;;;-1.70;99.90;;;;;;4830996;29;20100;-86
2022/11/20 09:25:21;;;;;;;7.57;3.78;;;-1.60;99.90;;;;;;4860104;29;20073;-85
2022/11/20 09:27:47;;;;;;;7.93;3.47;;;-1.40;99.90;;;;;;4865948;29;20048;-86
2022/11/20 09:30:14;;;;;;;8.23;4.22;;;-1.20;99.90;;;;;;4883083;29;20049;-85
2022/11/20 09:32:40;;;;;;;7.35;3.90;;;-1.20;99.90;;;;;;4870972;29;20041;-83
2022/11/20 09:35:06;;;;;;;9.05;4.75;;;-1.20;99.90;;;;;;4842277;29;20671;-83
2022/11/20 09:37:32;;;;;;;9.25;4.72;;;-1.10;99.90;;;;;;4857475;29;20056;-87
2022/11/20 09:39:58;;;;;;;7.35;4.13;;;-1.10;99.90;;;;;;4861341;29;20039;-89
2022/11/20 09:42:56;;;;;;;10.00;4.72;;;-1.10;99.90;;;;;;4851493;29;20029;-86
2022/11/20 09:45:37;;;;;;;8.30;3.67;;;-1.00;99.90;;;;;;4882616;29;20033;-86
2022/11/20 09:48:32;;;;;;;7.63;3.60;;;-0.90;99.90;;;;;;4883621;29;20434;-82
2022/11/20 09:51:21;;;;;;;7.40;4.60;;;-0.80;99.90;;;;;;4863312;29;20513;-86
2022/11/20 09:54:14;;;;;;;7.43;3.55;;;-0.80;99.90;;;;;;4871263;29;20454;-87
2022/11/20 09:56:44;;;;;;;9.77;4.07;;;-0.80;99.90;;;;;;4889397;29;20052;-83
2022/11/20 09:59:42;;;;;;;8.63;3.97;;;-0.70;99.90;;;;;;4871158;29;20045;-87
2022/11/20 10:02:23;;;;;;;7.38;3.60;;;-0.70;99.90;;;;;;4868737;29;20056;-86
2022/11/20 10:04:59;;;;;;;7.72;3.95;;;-0.60;99.90;;;;;;4870376;29;20513;-86
2022/11/20 10:07:36;;;;;;;8.20;4.25;;;-0.50;99.90;;;;;;4886996;29;20435;-90
2022/11/20 10:10:02;;;;;;;8.27;4.45;;;-0.50;99.90;;;;;;4869012;29;20072;-91
2022/11/20 10:12:33;;;;;;;9.88;5.25;;;-0.50;99.90;;;;;;4868615;29;20065;-87
2022/11/20 10:15:33;;;;;;;11.00;5.88;;;-0.30;99.90;;;;;;4884845;29;20052;-85
2022/11/20 10:18:15;;;;;;;8.65;5.20;;;-0.30;99.90;;;;;;4868102;29;20037;-85
2022/11/20 10:20:41;;;;;;;7.72;4.35;;;-0.20;99.90;;;;;;4876823;29;20621;-89
2022/11/20 10:23:20;;;;;;;8.50;4.43;;;-0.10;99.90;;;;;;4865670;29;20032;-90
2022/11/20 10:26:07;;;;;;;7.93;3.67;;;0.10;99.90;;;;;;4887661;29;20152;-90
2022/11/20 10:29:06;;;;;;;8.23;4.72;;;0.10;99.90;;;;;;4856532;29;20044;-84
2022/11/20 10:31:39;;;;;;;9.40;4.95;;;0.20;99.90;;;;;;4886198;29;20505;-84
2022/11/20 10:34:38;;;;;;;9.05;4.97;;;0.20;99.90;;;;;;4884447;29;20152;-88
2022/11/20 10:37:18;;;;;;;10.23;5.97;;;0.30;99.90;;;;;;4871469;29;20096;-86
2022/11/20 10:40:00;;;;;;;8.32;4.55;;;0.30;99.90;;;;;;4886519;29;20048;-85
2022/11/20 10:42:36;;;;;;;8.52;4.63;;;0.40;99.90;;;;;;4858409;29;20025;-86
2022/11/20 10:45:31;;;;;;;8.27;4.63;;;0.50;99.90;;;;;;4882029;29;20073;-85
2022/11/20 10:48:25;;;;;;;8.55;4.93;;;0.50;99.90;;;;;;4870014;29;20413;-84
2022/11/20 10:51:16;;;;;;;8.63;5.68;;;0.70;99.90;;;;;;4869347;29;20511;-88
2022/11/20 10:53:50;;;;;;;9.65;6.03;;;0.90;99.90;;;;;;4884706;29;20034;-90
2022/11/20 10:56:18;;;;;;;9.80;5.28;;;1.00;99.90;;;;;;4879971;29;20124;-87
2022/11/20 10:59:31;;;;;;;10.43;6.05;;;1.20;99.90;;;;;;4869374;29;20053;-91
2022/11/20 11:01:56;;;;;;;9.63;5.18;;;1.40;99.90;;;;;;4868532;29;20353;-90
2022/11/20 11:04:28;;;;;;;9.75;5.38;;;1.50;99.90;;;;;;4868325;29;20660;-84
2022/11/20 11:07:12;;;;;;;8.77;5.00;;;1.60;99.90;;;;;;4884778;29;20456;-86
2022/11/20 11:09:47;;;;;;;8.65;5.10;;;1.40;99.90;;;;;;4887367;29;20063;-86
2022/11/20 11:12:13;;;;;;;8.43;5.03;;;1.30;99.90;;;;;;4871456;29;20021;-90
2022/11/20 11:14:47;;;;;;;11.77;6.07;;;1.20;99.90;;;;;;4886408;29;20037;-92
2022/11/20 11:17:28;;;;;;;11.40;6.28;;;1.10;99.90;;;;;;4870119;29;20366;-85
2022/11/20 11:20:10;;;;;;;10.68;6.40;;;1.00;99.90;;;;;;4886168;29;20029;-93
2022/11/20 11:22:47;;;;;;;9.02;6.13;;;1.00;99.90;;;;;;4885689;29;20077;-90
2022/11/20 11:25:34;;;;;;;6.72;4.55;;;1.00;99.90;;;;;;4877599;29;20050;-92
2022/11/20 11:28:18;;;;;;;9.55;5.63;;;1.20;99.90;;;;;;4878969;29;20112;-87
2022/11/20 11:30:45;;;;;;;9.43;5.75;;;1.20;99.90;;;;;;4872049;29;20045;-86
2022/11/20 11:33:19;;;;;;;10.77;6.72;;;1.20;99.90;;;;;;4871675;29;20025;-85
2022/11/20 11:35:58;;;;;;;10.93;6.78;;;1.30;99.90;;;;;;4883853;29;20065;-91
2022/11/20 11:38:35;;;;;;;11.90;7.93;;;1.50;99.90;;;;;;4870558;29;20025;-90
2022/11/20 11:41:02;;;;;;;10.38;6.72;;;1.50;99.90;;;;;;4875050;29;20036;-88
2022/11/20 11:46:19;;;;;;;9.77;5.72;;;1.60;99.90;;;;;;4873982;29;20119;-86
2022/11/20 11:49:04;;;;;;;8.85;5.25;;;1.70;99.90;;;;;;4886778;29;20037;-82
2022/11/20 11:51:39;;;;;;;7.18;4.20;;;1.80;99.90;;;;;;4884168;29;20056;-85
2022/11/20 11:54:17;;;;;;;7.15;4.25;;;1.80;99.90;;;;;;4883646;29;20037;-87
2022/11/20 11:56:44;;;;;;;7.30;4.28;;;1.90;99.90;;;;;;4876791;29;20056;-84
2022/11/20 11:59:21;;;;;;;9.30;4.85;;;2.00;99.90;;;;;;4871380;29;20513;-86
2022/11/20 12:01:58;;;;;;;7.65;4.53;;;1.90;99.90;;;;;;4872965;29;20124;-91
2022/11/20 12:04:44;;;;;;;7.20;4.57;;;2.00;99.90;;;;;;4883954;29;20069;-86
2022/11/20 12:07:40;;;;;;;7.63;4.85;;;1.90;99.90;;;;;;4886109;29;20029;-86
2022/11/20 12:10:12;;;;;;;9.57;4.60;;;1.90;99.90;;;;;;4868678;29;20052;-85
2022/11/20 12:12:44;;;;;;;7.10;4.50;;;2.00;99.90;;;;;;4869825;29;20032;-87
2022/11/20 12:15:12;;;;;;;8.10;5.15;;;2.00;99.90;;;;;;4870410;29;20033;-89
2022/11/20 12:17:38;;;;;;;8.90;5.18;;;2.00;99.90;;;;;;4870252;29;20144;-88
2022/11/20 12:20:15;;;;;;;9.40;5.10;;;2.00;99.90;;;;;;4870063;29;20468;-87
2022/11/20 12:23:00;;;;;;;10.60;5.78;;;2.00;99.90;;;;;;4870229;29;20040;-86
2022/11/20 12:25:35;;;;;;;8.57;4.50;;;2.00;99.90;;;;;;4869251;29;20039;-87
2022/11/20 12:28:30;;;;;;;9.75;5.30;;;2.00;99.90;;;;;;4877182;29;20041;-84
2022/11/20 12:31:24;;;;;;;8.00;4.22;;;2.00;99.90;;;;;;4869337;29;20045;-87
2022/11/20 12:33:52;;;;;;;9.65;6.13;;;2.00;99.90;;;;;;4884065;29;20051;-84
2022/11/20 12:36:28;;;;;;;10.20;5.57;;;2.00;99.90;;;;;;4867386;29;20061;-87
2022/11/20 12:38:54;;;;;;;9.38;5.45;;;2.00;99.90;;;;;;4867759;29;20033;-83
2022/11/20 12:47:58;;;;;;;11.90;6.80;;;2.10;99.90;;;;;;4870307;29;20072;-84
2022/11/20 12:50:30;;;;;;;9.45;5.47;;;2.10;99.90;;;;;;4852193;29;20077;-84
2022/11/20 12:53:09;;;;;;;12.15;6.57;;;2.10;99.90;;;;;;4871562;29;20022;-84
2022/11/20 12:55:44;;;;;;;9.98;5.78;;;2.20;99.90;;;;;;4867410;29;20037;-83
2022/11/20 12:59:04;;;;;;;12.18;7.40;;;2.10;99.90;;;;;;4868884;29;20378;-87
2022/11/20 13:01:50;;;;;;;11.05;5.82;;;2.10;99.90;;;;;;4854615;29;20665;-82
2022/11/20 13:04:37;;;;;;;12.95;7.22;;;2.10;99.90;;;;;;4847765;29;20037;-83
2022/11/20 13:07:07;;;;;;;11.77;6.55;;;2.20;99.90;;;;;;4847559;29;20108;-86
2022/11/20 13:09:40;;;;;;;10.27;6.15;;;2.20;99.90;;;;;;4854610;29;20068;-87
2022/11/20 13:12:14;;;;;;;9.02;5.78;;;2.30;99.90;;;;;;4845681;29;20045;-84
2022/11/20 13:14:50;;;;;;;11.98;7.05;;;2.30;99.90;;;;;;4837391;29;20097;-84
2022/11/20 13:17:28;;;;;;;11.02;6.65;;;2.30;99.90;;;;;;4844029;29;20522;-89
2022/11/20 13:19:58;;;;;;;11.95;7.03;;;2.30;99.90;;;;;;4854163;29;20085;-85
2022/11/20 13:22:28;;;;;;;13.98;8.90;;;2.30;99.90;;;;;;4856008;29;20038;-85